sensor_id;sensor_type;location;lat;lon;timestamp;P1;durP1;ratioP1;P2;durP2;ratioP2
4074;SDS011;2052;53.522;9.806;2022-09-09T00:00:41;67.17;;;27.40;;
4074;SDS011;2052;53.522;9.806;2022-09-09T00:03:14;76.03;;;29.53;;
4074;SDS011;2052;53.522;9.806;2022-09-09T00:05:48;136.80;;;32.57;;
4074;SDS011;2052;53.522;9.806;2022-09-09T00:08:24;82.67;;;28.40;;
4074;SDS011;2052;53.522;9.806;2022-09-09T00:10:59;74.03;;;28.67;;
4074;SDS011;2052;53.522;9.806;2022-09-09T00:13:29;110.30;;;31.20;;
4074;SDS011;2052;53.522;9.806;2022-09-09T00:16:01;83.10;;;30.00;;
4074;SDS011;2052;53.522;9.806;2022-09-09T00:18:36;137.67;;;34.00;;
4074;SDS011;2052;53.522;9.806;2022-09-09T00:21:13;69.63;;;29.20;;
4074;SDS011;2052;53.522;9.806;2022-09-09T00:23:43;78.03;;;30.87;;
4074;SDS011;2052;53.522;9.806;2022-09-09T00:26:14;103.73;;;32.00;;
4074;SDS011;2052;53.522;9.806;2022-09-09T00:28:45;71.23;;;29.70;;
4074;SDS011;2052;53.522;9.806;2022-09-09T00:31:18;69.23;;;27.40;;
4074;SDS011;2052;53.522;9.806;2022-09-09T00:33:47;76.50;;;27.87;;
4074;SDS011;2052;53.522;9.806;2022-09-09T00:36:17;76.80;;;30.60;;
4074;SDS011;2052;53.522;9.806;2022-09-09T00:38:46;102.73;;;31.10;;
4074;SDS011;2052;53.522;9.806;2022-09-09T00:41:18;70.63;;;29.63;;
4074;SDS011;2052;53.522;9.806;2022-09-09T00:43:49;59.03;;;26.53;;
4074;SDS011;2052;53.522;9.806;2022-09-09T00:46:29;60.10;;;26.43;;
4074;SDS011;2052;53.522;9.806;2022-09-09T00:49:15;74.47;;;28.70;;
4074;SDS011;2052;53.522;9.806;2022-09-09T00:51:52;70.23;;;27.60;;
4074;SDS011;2052;53.522;9.806;2022-09-09T00:54:28;60.27;;;26.17;;
4074;SDS011;2052;53.522;9.806;2022-09-09T00:57:10;58.03;;;25.77;;
4074;SDS011;2052;53.522;9.806;2022-09-09T00:59:44;64.23;;;26.90;;
4074;SDS011;2052;53.522;9.806;2022-09-09T01:02:16;56.67;;;25.87;;
4074;SDS011;2052;53.522;9.806;2022-09-09T01:04:48;58.43;;;27.30;;
4074;SDS011;2052;53.522;9.806;2022-09-09T01:07:17;57.57;;;25.97;;
4074;SDS011;2052;53.522;9.806;2022-09-09T01:09:47;55.27;;;24.87;;
4074;SDS011;2052;53.522;9.806;2022-09-09T01:12:23;60.10;;;26.40;;
4074;SDS011;2052;53.522;9.806;2022-09-09T01:14:54;51.43;;;24.10;;
4074;SDS011;2052;53.522;9.806;2022-09-09T01:17:24;59.53;;;24.13;;
4074;SDS011;2052;53.522;9.806;2022-09-09T01:22:44;46.23;;;23.17;;
4074;SDS011;2052;53.522;9.806;2022-09-09T01:25:24;53.10;;;23.27;;
4074;SDS011;2052;53.522;9.806;2022-09-09T01:27:56;50.30;;;22.90;;
4074;SDS011;2052;53.522;9.806;2022-09-09T01:30:25;99.00;;;27.10;;
4074;SDS011;2052;53.522;9.806;2022-09-09T01:32:53;376.87;;;42.23;;
4074;SDS011;2052;53.522;9.806;2022-09-09T01:35:26;81.37;;;24.30;;
4074;SDS011;2052;53.522;9.806;2022-09-09T01:37:56;73.37;;;25.00;;
4074;SDS011;2052;53.522;9.806;2022-09-09T01:40:23;56.47;;;19.60;;
4074;SDS011;2052;53.522;9.806;2022-09-09T01:42:50;47.27;;;20.47;;
4074;SDS011;2052;53.522;9.806;2022-09-09T01:45:19;64.43;;;20.90;;
4074;SDS011;2052;53.522;9.806;2022-09-09T01:47:46;74.30;;;21.23;;
4074;SDS011;2052;53.522;9.806;2022-09-09T01:50:13;54.73;;;20.63;;
4074;SDS011;2052;53.522;9.806;2022-09-09T01:52:42;82.57;;;18.33;;
4074;SDS011;2052;53.522;9.806;2022-09-09T01:55:09;122.10;;;18.57;;
4074;SDS011;2052;53.522;9.806;2022-09-09T01:57:38;170.20;;;22.40;;
4074;SDS011;2052;53.522;9.806;2022-09-09T02:00:07;83.70;;;17.57;;
4074;SDS011;2052;53.522;9.806;2022-09-09T02:02:37;84.30;;;17.40;;
4074;SDS011;2052;53.522;9.806;2022-09-09T02:05:11;33.90;;;14.10;;
4074;SDS011;2052;53.522;9.806;2022-09-09T02:07:45;30.00;;;12.93;;
4074;SDS011;2052;53.522;9.806;2022-09-09T02:10:15;40.93;;;18.17;;
4074;SDS011;2052;53.522;9.806;2022-09-09T02:12:45;72.47;;;20.70;;
4074;SDS011;2052;53.522;9.806;2022-09-09T02:15:16;37.70;;;16.57;;
4074;SDS011;2052;53.522;9.806;2022-09-09T02:17:49;36.47;;;17.33;;
4074;SDS011;2052;53.522;9.806;2022-09-09T02:20:16;29.47;;;14.50;;
4074;SDS011;2052;53.522;9.806;2022-09-09T02:22:45;35.00;;;15.67;;
4074;SDS011;2052;53.522;9.806;2022-09-09T02:25:16;33.27;;;15.20;;
4074;SDS011;2052;53.522;9.806;2022-09-09T02:27:44;30.17;;;15.87;;
4074;SDS011;2052;53.522;9.806;2022-09-09T02:30:12;34.47;;;16.10;;
4074;SDS011;2052;53.522;9.806;2022-09-09T02:32:40;32.30;;;15.27;;
4074;SDS011;2052;53.522;9.806;2022-09-09T02:35:09;33.30;;;16.27;;
4074;SDS011;2052;53.522;9.806;2022-09-09T02:37:40;38.60;;;19.53;;
4074;SDS011;2052;53.522;9.806;2022-09-09T02:40:10;35.73;;;18.07;;
4074;SDS011;2052;53.522;9.806;2022-09-09T02:42:38;40.50;;;17.33;;
4074;SDS011;2052;53.522;9.806;2022-09-09T02:45:06;35.17;;;16.70;;
4074;SDS011;2052;53.522;9.806;2022-09-09T02:47:34;35.67;;;18.00;;
4074;SDS011;2052;53.522;9.806;2022-09-09T02:50:04;31.53;;;16.90;;
4074;SDS011;2052;53.522;9.806;2022-09-09T02:52:38;44.00;;;18.70;;
4074;SDS011;2052;53.522;9.806;2022-09-09T02:55:15;40.47;;;18.77;;
4074;SDS011;2052;53.522;9.806;2022-09-09T02:57:43;39.27;;;18.40;;
4074;SDS011;2052;53.522;9.806;2022-09-09T03:00:12;45.57;;;19.13;;
4074;SDS011;2052;53.522;9.806;2022-09-09T03:02:39;42.07;;;18.57;;
4074;SDS011;2052;53.522;9.806;2022-09-09T03:05:09;39.73;;;18.80;;
4074;SDS011;2052;53.522;9.806;2022-09-09T03:07:35;40.43;;;18.90;;
4074;SDS011;2052;53.522;9.806;2022-09-09T03:10:02;39.60;;;18.50;;
4074;SDS011;2052;53.522;9.806;2022-09-09T03:12:30;43.17;;;19.20;;
4074;SDS011;2052;53.522;9.806;2022-09-09T03:14:59;37.87;;;18.70;;
4074;SDS011;2052;53.522;9.806;2022-09-09T03:17:25;42.80;;;19.90;;
4074;SDS011;2052;53.522;9.806;2022-09-09T03:19:54;47.20;;;20.17;;
4074;SDS011;2052;53.522;9.806;2022-09-09T03:22:24;43.00;;;20.97;;
4074;SDS011;2052;53.522;9.806;2022-09-09T03:24:51;46.57;;;19.70;;
4074;SDS011;2052;53.522;9.806;2022-09-09T03:27:18;38.37;;;18.90;;
4074;SDS011;2052;53.522;9.806;2022-09-09T03:29:45;39.83;;;17.97;;
4074;SDS011;2052;53.522;9.806;2022-09-09T03:32:12;43.13;;;19.80;;
4074;SDS011;2052;53.522;9.806;2022-09-09T03:34:39;38.00;;;18.20;;
4074;SDS011;2052;53.522;9.806;2022-09-09T03:37:06;43.50;;;20.30;;
4074;SDS011;2052;53.522;9.806;2022-09-09T03:39:34;39.03;;;19.83;;
4074;SDS011;2052;53.522;9.806;2022-09-09T03:42:01;40.00;;;19.30;;
4074;SDS011;2052;53.522;9.806;2022-09-09T03:44:29;34.10;;;17.47;;
4074;SDS011;2052;53.522;9.806;2022-09-09T03:46:56;42.57;;;19.47;;
4074;SDS011;2052;53.522;9.806;2022-09-09T03:49:25;34.10;;;16.70;;
4074;SDS011;2052;53.522;9.806;2022-09-09T03:51:54;45.47;;;21.07;;
4074;SDS011;2052;53.522;9.806;2022-09-09T03:54:21;34.53;;;17.57;;
4074;SDS011;2052;53.522;9.806;2022-09-09T03:56:50;40.17;;;18.13;;
4074;SDS011;2052;53.522;9.806;2022-09-09T03:59:17;34.23;;;15.93;;
4074;SDS011;2052;53.522;9.806;2022-09-09T04:01:43;35.30;;;16.50;;
4074;SDS011;2052;53.522;9.806;2022-09-09T04:04:12;40.87;;;18.77;;
4074;SDS011;2052;53.522;9.806;2022-09-09T04:06:38;39.27;;;19.60;;
4074;SDS011;2052;53.522;9.806;2022-09-09T04:09:05;35.23;;;16.90;;
4074;SDS011;2052;53.522;9.806;2022-09-09T04:11:32;31.27;;;16.27;;
4074;SDS011;2052;53.522;9.806;2022-09-09T04:14:00;38.63;;;18.90;;
4074;SDS011;2052;53.522;9.806;2022-09-09T04:16:27;35.80;;;17.10;;
4074;SDS011;2052;53.522;9.806;2022-09-09T04:18:54;34.53;;;18.83;;
4074;SDS011;2052;53.522;9.806;2022-09-09T04:21:21;35.77;;;18.83;;
4074;SDS011;2052;53.522;9.806;2022-09-09T04:23:48;40.00;;;18.80;;
4074;SDS011;2052;53.522;9.806;2022-09-09T04:26:15;37.03;;;19.20;;
4074;SDS011;2052;53.522;9.806;2022-09-09T04:28:44;33.00;;;17.77;;
4074;SDS011;2052;53.522;9.806;2022-09-09T04:31:14;34.27;;;16.33;;
4074;SDS011;2052;53.522;9.806;2022-09-09T04:33:43;43.47;;;18.40;;
4074;SDS011;2052;53.522;9.806;2022-09-09T04:36:09;42.93;;;20.10;;
4074;SDS011;2052;53.522;9.806;2022-09-09T04:38:37;40.43;;;19.30;;
4074;SDS011;2052;53.522;9.806;2022-09-09T04:41:05;33.90;;;18.03;;
4074;SDS011;2052;53.522;9.806;2022-09-09T04:43:32;37.03;;;17.77;;
4074;SDS011;2052;53.522;9.806;2022-09-09T04:45:59;33.83;;;18.93;;
4074;SDS011;2052;53.522;9.806;2022-09-09T04:48:27;39.23;;;16.80;;
4074;SDS011;2052;53.522;9.806;2022-09-09T04:50:55;38.17;;;18.10;;
4074;SDS011;2052;53.522;9.806;2022-09-09T04:53:23;36.80;;;15.60;;
4074;SDS011;2052;53.522;9.806;2022-09-09T04:55:50;36.20;;;16.93;;
4074;SDS011;2052;53.522;9.806;2022-09-09T04:58:17;28.50;;;15.73;;
4074;SDS011;2052;53.522;9.806;2022-09-09T05:00:47;26.80;;;14.50;;
4074;SDS011;2052;53.522;9.806;2022-09-09T05:03:13;28.27;;;13.90;;
4074;SDS011;2052;53.522;9.806;2022-09-09T05:05:41;26.83;;;13.90;;
4074;SDS011;2052;53.522;9.806;2022-09-09T05:08:09;29.20;;;13.93;;
4074;SDS011;2052;53.522;9.806;2022-09-09T05:10:37;27.23;;;13.90;;
4074;SDS011;2052;53.522;9.806;2022-09-09T05:13:07;28.40;;;14.63;;
4074;SDS011;2052;53.522;9.806;2022-09-09T05:15:33;32.63;;;15.33;;
4074;SDS011;2052;53.522;9.806;2022-09-09T05:18:01;24.77;;;14.67;;
4074;SDS011;2052;53.522;9.806;2022-09-09T05:20:28;28.50;;;13.33;;
4074;SDS011;2052;53.522;9.806;2022-09-09T05:22:56;25.43;;;13.40;;
4074;SDS011;2052;53.522;9.806;2022-09-09T05:25:23;26.53;;;12.57;;
4074;SDS011;2052;53.522;9.806;2022-09-09T05:27:51;23.90;;;12.70;;
4074;SDS011;2052;53.522;9.806;2022-09-09T05:30:18;28.80;;;12.60;;
4074;SDS011;2052;53.522;9.806;2022-09-09T05:32:45;23.37;;;12.30;;
4074;SDS011;2052;53.522;9.806;2022-09-09T05:35:14;30.23;;;13.70;;
4074;SDS011;2052;53.522;9.806;2022-09-09T05:37:41;25.87;;;11.43;;
4074;SDS011;2052;53.522;9.806;2022-09-09T05:40:09;21.33;;;10.97;;
4074;SDS011;2052;53.522;9.806;2022-09-09T05:42:37;21.70;;;11.60;;
4074;SDS011;2052;53.522;9.806;2022-09-09T05:45:04;19.33;;;11.00;;
4074;SDS011;2052;53.522;9.806;2022-09-09T05:47:32;26.97;;;11.33;;
4074;SDS011;2052;53.522;9.806;2022-09-09T05:49:59;17.77;;;11.80;;
4074;SDS011;2052;53.522;9.806;2022-09-09T05:52:26;18.60;;;10.57;;
4074;SDS011;2052;53.522;9.806;2022-09-09T05:54:54;19.03;;;10.80;;
4074;SDS011;2052;53.522;9.806;2022-09-09T05:57:23;15.37;;;8.77;;
4074;SDS011;2052;53.522;9.806;2022-09-09T05:59:50;24.03;;;13.57;;
4074;SDS011;2052;53.522;9.806;2022-09-09T06:02:17;21.77;;;13.47;;
4074;SDS011;2052;53.522;9.806;2022-09-09T06:04:43;15.13;;;10.27;;
4074;SDS011;2052;53.522;9.806;2022-09-09T06:07:10;13.70;;;7.70;;
4074;SDS011;2052;53.522;9.806;2022-09-09T06:09:38;10.50;;;6.97;;
4074;SDS011;2052;53.522;9.806;2022-09-09T06:12:05;13.47;;;7.70;;
4074;SDS011;2052;53.522;9.806;2022-09-09T06:14:34;10.80;;;7.60;;
4074;SDS011;2052;53.522;9.806;2022-09-09T06:17:02;12.30;;;7.17;;
4074;SDS011;2052;53.522;9.806;2022-09-09T06:19:28;12.47;;;8.23;;
4074;SDS011;2052;53.522;9.806;2022-09-09T06:21:56;10.97;;;7.63;;
4074;SDS011;2052;53.522;9.806;2022-09-09T06:24:22;17.80;;;8.20;;
4074;SDS011;2052;53.522;9.806;2022-09-09T06:26:49;11.70;;;7.30;;
4074;SDS011;2052;53.522;9.806;2022-09-09T06:29:16;9.83;;;8.40;;
4074;SDS011;2052;53.522;9.806;2022-09-09T06:31:44;13.70;;;7.30;;
4074;SDS011;2052;53.522;9.806;2022-09-09T06:34:10;17.50;;;8.17;;
4074;SDS011;2052;53.522;9.806;2022-09-09T06:36:38;13.30;;;6.20;;
4074;SDS011;2052;53.522;9.806;2022-09-09T06:39:05;16.97;;;7.10;;
4074;SDS011;2052;53.522;9.806;2022-09-09T06:41:33;11.37;;;6.33;;
4074;SDS011;2052;53.522;9.806;2022-09-09T06:44:00;10.90;;;5.87;;
4074;SDS011;2052;53.522;9.806;2022-09-09T06:46:29;10.37;;;5.67;;
4074;SDS011;2052;53.522;9.806;2022-09-09T06:48:59;10.80;;;6.23;;
4074;SDS011;2052;53.522;9.806;2022-09-09T06:51:28;9.73;;;5.67;;
4074;SDS011;2052;53.522;9.806;2022-09-09T06:53:55;9.20;;;6.50;;
4074;SDS011;2052;53.522;9.806;2022-09-09T06:56:24;11.10;;;6.60;;
4074;SDS011;2052;53.522;9.806;2022-09-09T06:58:53;7.30;;;4.80;;
4074;SDS011;2052;53.522;9.806;2022-09-09T07:01:21;6.97;;;5.17;;
4074;SDS011;2052;53.522;9.806;2022-09-09T07:03:49;6.83;;;4.70;;
4074;SDS011;2052;53.522;9.806;2022-09-09T07:06:19;8.63;;;5.20;;
4074;SDS011;2052;53.522;9.806;2022-09-09T07:08:49;6.47;;;5.00;;
4074;SDS011;2052;53.522;9.806;2022-09-09T07:11:17;10.30;;;6.57;;
4074;SDS011;2052;53.522;9.806;2022-09-09T07:13:44;5.63;;;3.87;;
4074;SDS011;2052;53.522;9.806;2022-09-09T07:16:12;5.70;;;4.23;;
4074;SDS011;2052;53.522;9.806;2022-09-09T07:18:40;6.33;;;3.90;;
4074;SDS011;2052;53.522;9.806;2022-09-09T07:21:08;8.13;;;4.73;;
4074;SDS011;2052;53.522;9.806;2022-09-09T07:23:37;5.37;;;4.03;;
4074;SDS011;2052;53.522;9.806;2022-09-09T07:26:07;8.07;;;4.60;;
4074;SDS011;2052;53.522;9.806;2022-09-09T07:28:34;9.47;;;4.53;;
4074;SDS011;2052;53.522;9.806;2022-09-09T07:31:01;4.53;;;3.70;;
4074;SDS011;2052;53.522;9.806;2022-09-09T07:33:29;6.93;;;4.33;;
4074;SDS011;2052;53.522;9.806;2022-09-09T07:36:01;5.00;;;3.23;;
4074;SDS011;2052;53.522;9.806;2022-09-09T07:38:29;10.17;;;4.70;;
4074;SDS011;2052;53.522;9.806;2022-09-09T07:41:03;4.57;;;3.80;;
4074;SDS011;2052;53.522;9.806;2022-09-09T07:43:32;10.73;;;4.20;;
4074;SDS011;2052;53.522;9.806;2022-09-09T07:45:59;4.93;;;4.10;;
4074;SDS011;2052;53.522;9.806;2022-09-09T07:48:27;8.80;;;3.80;;
4074;SDS011;2052;53.522;9.806;2022-09-09T07:51:02;5.57;;;3.80;;
4074;SDS011;2052;53.522;9.806;2022-09-09T07:53:31;7.90;;;3.90;;
4074;SDS011;2052;53.522;9.806;2022-09-09T07:56:01;4.23;;;3.40;;
4074;SDS011;2052;53.522;9.806;2022-09-09T07:58:30;5.73;;;3.33;;
4074;SDS011;2052;53.522;9.806;2022-09-09T08:00:57;5.73;;;3.13;;
4074;SDS011;2052;53.522;9.806;2022-09-09T08:03:24;6.30;;;3.47;;
4074;SDS011;2052;53.522;9.806;2022-09-09T08:05:50;3.70;;;3.07;;
4074;SDS011;2052;53.522;9.806;2022-09-09T08:08:17;3.70;;;3.40;;
4074;SDS011;2052;53.522;9.806;2022-09-09T08:10:44;7.03;;;3.30;;
4074;SDS011;2052;53.522;9.806;2022-09-09T08:13:12;3.50;;;2.93;;
4074;SDS011;2052;53.522;9.806;2022-09-09T08:15:39;3.77;;;2.90;;
4074;SDS011;2052;53.522;9.806;2022-09-09T08:18:06;4.10;;;3.00;;
4074;SDS011;2052;53.522;9.806;2022-09-09T08:20:35;5.87;;;3.80;;
4074;SDS011;2052;53.522;9.806;2022-09-09T08:23:02;4.20;;;3.20;;
4074;SDS011;2052;53.522;9.806;2022-09-09T08:25:30;5.00;;;3.20;;
4074;SDS011;2052;53.522;9.806;2022-09-09T08:27:56;3.77;;;3.40;;
4074;SDS011;2052;53.522;9.806;2022-09-09T08:30:25;4.20;;;3.20;;
4074;SDS011;2052;53.522;9.806;2022-09-09T08:32:51;7.00;;;3.90;;
4074;SDS011;2052;53.522;9.806;2022-09-09T08:35:18;7.83;;;3.13;;
4074;SDS011;2052;53.522;9.806;2022-09-09T08:37:46;5.20;;;3.27;;
4074;SDS011;2052;53.522;9.806;2022-09-09T08:40:16;7.73;;;3.63;;
4074;SDS011;2052;53.522;9.806;2022-09-09T08:42:44;5.73;;;4.00;;
4074;SDS011;2052;53.522;9.806;2022-09-09T08:45:19;3.33;;;2.73;;
4074;SDS011;2052;53.522;9.806;2022-09-09T08:47:55;3.40;;;3.07;;
4074;SDS011;2052;53.522;9.806;2022-09-09T08:50:28;5.03;;;3.20;;
4074;SDS011;2052;53.522;9.806;2022-09-09T08:52:59;6.00;;;2.80;;
4074;SDS011;2052;53.522;9.806;2022-09-09T08:55:30;7.20;;;3.07;;
4074;SDS011;2052;53.522;9.806;2022-09-09T08:58:05;2.53;;;2.33;;
4074;SDS011;2052;53.522;9.806;2022-09-09T09:00:40;2.70;;;2.20;;
4074;SDS011;2052;53.522;9.806;2022-09-09T09:03:15;3.30;;;2.20;;
4074;SDS011;2052;53.522;9.806;2022-09-09T09:05:51;1.90;;;1.80;;
4074;SDS011;2052;53.522;9.806;2022-09-09T09:08:27;2.60;;;1.97;;
4074;SDS011;2052;53.522;9.806;2022-09-09T09:10:57;9.20;;;3.20;;
4074;SDS011;2052;53.522;9.806;2022-09-09T09:13:26;4.63;;;2.20;;
4074;SDS011;2052;53.522;9.806;2022-09-09T09:16:00;2.30;;;2.10;;
4074;SDS011;2052;53.522;9.806;2022-09-09T09:18:28;6.10;;;1.60;;
4074;SDS011;2052;53.522;9.806;2022-09-09T09:20:58;2.07;;;1.57;;
4074;SDS011;2052;53.522;9.806;2022-09-09T09:23:29;2.67;;;2.03;;
4074;SDS011;2052;53.522;9.806;2022-09-09T09:26:00;2.67;;;1.60;;
4074;SDS011;2052;53.522;9.806;2022-09-09T09:28:29;2.20;;;1.63;;
4074;SDS011;2052;53.522;9.806;2022-09-09T09:30:59;2.40;;;1.60;;
4074;SDS011;2052;53.522;9.806;2022-09-09T09:33:31;3.33;;;1.37;;
4074;SDS011;2052;53.522;9.806;2022-09-09T09:36:01;2.63;;;1.17;;
4074;SDS011;2052;53.522;9.806;2022-09-09T09:38:30;2.00;;;1.30;;
4074;SDS011;2052;53.522;9.806;2022-09-09T09:40:58;2.07;;;1.17;;
4074;SDS011;2052;53.522;9.806;2022-09-09T09:43:26;1.50;;;1.27;;
4074;SDS011;2052;53.522;9.806;2022-09-09T09:45:54;2.43;;;1.17;;
4074;SDS011;2052;53.522;9.806;2022-09-09T09:48:24;1.87;;;1.10;;
4074;SDS011;2052;53.522;9.806;2022-09-09T09:50:53;2.90;;;1.20;;
4074;SDS011;2052;53.522;9.806;2022-09-09T09:53:23;1.40;;;1.10;;
4074;SDS011;2052;53.522;9.806;2022-09-09T09:55:55;2.53;;;1.10;;
4074;SDS011;2052;53.522;9.806;2022-09-09T09:58:23;6.67;;;2.07;;
4074;SDS011;2052;53.522;9.806;2022-09-09T10:00:52;4.13;;;1.40;;
4074;SDS011;2052;53.522;9.806;2022-09-09T10:03:25;2.97;;;1.20;;
4074;SDS011;2052;53.522;9.806;2022-09-09T10:05:53;1.10;;;1.00;;
4074;SDS011;2052;53.522;9.806;2022-09-09T10:08:21;1.47;;;0.90;;
4074;SDS011;2052;53.522;9.806;2022-09-09T10:10:50;2.00;;;1.10;;
4074;SDS011;2052;53.522;9.806;2022-09-09T10:13:33;1.00;;;0.80;;
4074;SDS011;2052;53.522;9.806;2022-09-09T10:16:10;1.73;;;1.00;;
4074;SDS011;2052;53.522;9.806;2022-09-09T10:18:47;3.70;;;1.10;;
4074;SDS011;2052;53.522;9.806;2022-09-09T10:21:23;1.20;;;1.10;;
4074;SDS011;2052;53.522;9.806;2022-09-09T10:23:59;0.70;;;0.70;;
4074;SDS011;2052;53.522;9.806;2022-09-09T10:26:36;1.90;;;1.00;;
4074;SDS011;2052;53.522;9.806;2022-09-09T10:29:24;3.80;;;0.90;;
4074;SDS011;2052;53.522;9.806;2022-09-09T10:32:00;0.83;;;0.83;;
4074;SDS011;2052;53.522;9.806;2022-09-09T10:34:47;1.60;;;1.10;;
4074;SDS011;2052;53.522;9.806;2022-09-09T10:37:25;0.80;;;0.80;;
4074;SDS011;2052;53.522;9.806;2022-09-09T10:40:02;1.93;;;0.87;;
4074;SDS011;2052;53.522;9.806;2022-09-09T10:42:35;4.47;;;1.97;;
4074;SDS011;2052;53.522;9.806;2022-09-09T10:45:05;4.20;;;1.27;;
4074;SDS011;2052;53.522;9.806;2022-09-09T10:50:28;2.77;;;1.10;;
4074;SDS011;2052;53.522;9.806;2022-09-09T10:53:02;2.00;;;1.00;;
4074;SDS011;2052;53.522;9.806;2022-09-09T10:55:37;0.97;;;0.97;;
4074;SDS011;2052;53.522;9.806;2022-09-09T10:58:09;5.73;;;1.50;;
4074;SDS011;2052;53.522;9.806;2022-09-09T11:00:38;3.20;;;1.60;;
4074;SDS011;2052;53.522;9.806;2022-09-09T11:03:06;2.30;;;1.70;;
4074;SDS011;2052;53.522;9.806;2022-09-09T11:05:41;2.17;;;1.97;;
4074;SDS011;2052;53.522;9.806;2022-09-09T11:08:10;2.37;;;1.70;;
4074;SDS011;2052;53.522;9.806;2022-09-09T11:10:41;3.93;;;1.40;;
4074;SDS011;2052;53.522;9.806;2022-09-09T11:13:10;6.70;;;1.57;;
4074;SDS011;2052;53.522;9.806;2022-09-09T11:15:41;1.83;;;1.33;;
4074;SDS011;2052;53.522;9.806;2022-09-09T11:18:11;4.20;;;1.40;;
4074;SDS011;2052;53.522;9.806;2022-09-09T11:20:41;1.47;;;1.33;;
4074;SDS011;2052;53.522;9.806;2022-09-09T11:23:09;4.13;;;1.57;;
4074;SDS011;2052;53.522;9.806;2022-09-09T11:25:39;4.30;;;1.27;;
4074;SDS011;2052;53.522;9.806;2022-09-09T11:31:00;1.27;;;1.10;;
4074;SDS011;2052;53.522;9.806;2022-09-09T11:33:42;2.90;;;1.30;;
4074;SDS011;2052;53.522;9.806;2022-09-09T11:36:29;2.77;;;1.67;;
4074;SDS011;2052;53.522;9.806;2022-09-09T11:42:33;1.90;;;1.40;;
4074;SDS011;2052;53.522;9.806;2022-09-09T11:45:08;2.50;;;1.60;;
4074;SDS011;2052;53.522;9.806;2022-09-09T11:47:38;2.50;;;1.33;;
4074;SDS011;2052;53.522;9.806;2022-09-09T11:50:09;2.47;;;1.50;;
4074;SDS011;2052;53.522;9.806;2022-09-09T11:52:39;4.73;;;1.50;;
4074;SDS011;2052;53.522;9.806;2022-09-09T11:55:09;4.20;;;1.67;;
4074;SDS011;2052;53.522;9.806;2022-09-09T11:57:37;2.67;;;1.20;;
4074;SDS011;2052;53.522;9.806;2022-09-09T12:00:05;1.97;;;1.30;;
4074;SDS011;2052;53.522;9.806;2022-09-09T12:02:33;2.20;;;1.50;;
4074;SDS011;2052;53.522;9.806;2022-09-09T12:05:02;3.30;;;1.70;;
4074;SDS011;2052;53.522;9.806;2022-09-09T12:07:34;5.40;;;1.50;;
4074;SDS011;2052;53.522;9.806;2022-09-09T12:10:05;1.63;;;1.53;;
4074;SDS011;2052;53.522;9.806;2022-09-09T12:12:46;2.00;;;1.20;;
4074;SDS011;2052;53.522;9.806;2022-09-09T12:15:18;2.53;;;1.40;;
4074;SDS011;2052;53.522;9.806;2022-09-09T12:17:50;4.77;;;1.37;;
4074;SDS011;2052;53.522;9.806;2022-09-09T12:20:19;1.67;;;1.53;;
4074;SDS011;2052;53.522;9.806;2022-09-09T12:22:59;1.67;;;1.00;;
4074;SDS011;2052;53.522;9.806;2022-09-09T12:28:41;2.83;;;1.50;;
4074;SDS011;2052;53.522;9.806;2022-09-09T12:31:12;2.57;;;1.30;;
4074;SDS011;2052;53.522;9.806;2022-09-09T12:33:43;2.83;;;1.40;;
4074;SDS011;2052;53.522;9.806;2022-09-09T12:36:13;1.90;;;1.10;;
4074;SDS011;2052;53.522;9.806;2022-09-09T12:38:42;3.50;;;1.90;;
4074;SDS011;2052;53.522;9.806;2022-09-09T12:41:19;3.27;;;1.53;;
4074;SDS011;2052;53.522;9.806;2022-09-09T12:43:46;5.67;;;1.43;;
4074;SDS011;2052;53.522;9.806;2022-09-09T12:46:16;5.03;;;1.40;;
4074;SDS011;2052;53.522;9.806;2022-09-09T12:48:47;2.10;;;1.30;;
4074;SDS011;2052;53.522;9.806;2022-09-09T12:51:17;1.77;;;1.40;;
4074;SDS011;2052;53.522;9.806;2022-09-09T12:53:45;2.73;;;1.50;;
4074;SDS011;2052;53.522;9.806;2022-09-09T12:56:19;3.20;;;2.03;;
4074;SDS011;2052;53.522;9.806;2022-09-09T12:58:47;5.13;;;1.77;;
4074;SDS011;2052;53.522;9.806;2022-09-09T13:01:18;2.50;;;1.67;;
4074;SDS011;2052;53.522;9.806;2022-09-09T13:03:48;4.50;;;1.60;;
4074;SDS011;2052;53.522;9.806;2022-09-09T13:06:18;4.07;;;1.80;;
4074;SDS011;2052;53.522;9.806;2022-09-09T13:08:48;2.13;;;1.77;;
4074;SDS011;2052;53.522;9.806;2022-09-09T13:11:15;4.73;;;1.70;;
4074;SDS011;2052;53.522;9.806;2022-09-09T13:13:49;2.80;;;1.80;;
4074;SDS011;2052;53.522;9.806;2022-09-09T13:16:20;3.73;;;2.10;;
4074;SDS011;2052;53.522;9.806;2022-09-09T13:18:49;2.00;;;1.70;;
4074;SDS011;2052;53.522;9.806;2022-09-09T13:21:16;1.90;;;1.13;;
4074;SDS011;2052;53.522;9.806;2022-09-09T13:23:47;3.30;;;1.40;;
4074;SDS011;2052;53.522;9.806;2022-09-09T13:26:24;1.37;;;1.27;;
4074;SDS011;2052;53.522;9.806;2022-09-09T13:28:52;2.70;;;1.13;;
4074;SDS011;2052;53.522;9.806;2022-09-09T13:31:21;3.10;;;2.07;;
4074;SDS011;2052;53.522;9.806;2022-09-09T13:33:49;5.30;;;2.30;;
4074;SDS011;2052;53.522;9.806;2022-09-09T13:36:26;1.93;;;1.83;;
4074;SDS011;2052;53.522;9.806;2022-09-09T13:38:55;3.40;;;1.60;;
4074;SDS011;2052;53.522;9.806;2022-09-09T13:41:27;8.80;;;2.40;;
4074;SDS011;2052;53.522;9.806;2022-09-09T13:43:56;5.73;;;2.03;;
4074;SDS011;2052;53.522;9.806;2022-09-09T13:46:31;3.90;;;2.87;;
4074;SDS011;2052;53.522;9.806;2022-09-09T13:49:00;14.83;;;3.77;;
4074;SDS011;2052;53.522;9.806;2022-09-09T13:51:30;8.60;;;4.00;;
4074;SDS011;2052;53.522;9.806;2022-09-09T13:54:02;6.57;;;3.93;;
4074;SDS011;2052;53.522;9.806;2022-09-09T13:56:32;7.83;;;3.83;;
4074;SDS011;2052;53.522;9.806;2022-09-09T13:58:59;9.93;;;4.03;;
4074;SDS011;2052;53.522;9.806;2022-09-09T14:01:26;7.03;;;4.43;;
4074;SDS011;2052;53.522;9.806;2022-09-09T14:03:53;10.13;;;4.10;;
4074;SDS011;2052;53.522;9.806;2022-09-09T14:06:20;6.60;;;3.30;;
4074;SDS011;2052;53.522;9.806;2022-09-09T14:08:48;4.30;;;3.70;;
4074;SDS011;2052;53.522;9.806;2022-09-09T14:11:16;5.63;;;3.73;;
4074;SDS011;2052;53.522;9.806;2022-09-09T14:13:45;6.13;;;3.50;;
4074;SDS011;2052;53.522;9.806;2022-09-09T14:16:12;4.70;;;3.17;;
4074;SDS011;2052;53.522;9.806;2022-09-09T14:18:39;9.80;;;4.77;;
4074;SDS011;2052;53.522;9.806;2022-09-09T14:21:05;7.17;;;3.83;;
4074;SDS011;2052;53.522;9.806;2022-09-09T14:23:34;8.13;;;4.53;;
4074;SDS011;2052;53.522;9.806;2022-09-09T14:26:01;5.80;;;3.57;;
4074;SDS011;2052;53.522;9.806;2022-09-09T14:28:27;6.70;;;4.33;;
4074;SDS011;2052;53.522;9.806;2022-09-09T14:30:58;6.43;;;3.23;;
4074;SDS011;2052;53.522;9.806;2022-09-09T14:33:25;7.00;;;3.30;;
4074;SDS011;2052;53.522;9.806;2022-09-09T14:35:55;5.10;;;3.10;;
4074;SDS011;2052;53.522;9.806;2022-09-09T14:38:22;3.50;;;2.60;;
4074;SDS011;2052;53.522;9.806;2022-09-09T14:40:49;3.47;;;2.97;;
4074;SDS011;2052;53.522;9.806;2022-09-09T14:43:16;3.23;;;2.50;;
4074;SDS011;2052;53.522;9.806;2022-09-09T14:45:42;5.70;;;3.00;;
4074;SDS011;2052;53.522;9.806;2022-09-09T14:48:11;2.83;;;2.63;;
4074;SDS011;2052;53.522;9.806;2022-09-09T14:50:38;3.23;;;2.93;;
4074;SDS011;2052;53.522;9.806;2022-09-09T14:53:05;8.10;;;3.60;;
4074;SDS011;2052;53.522;9.806;2022-09-09T14:55:33;3.60;;;3.30;;
4074;SDS011;2052;53.522;9.806;2022-09-09T14:58:00;6.03;;;2.70;;
4074;SDS011;2052;53.522;9.806;2022-09-09T15:00:27;4.20;;;2.93;;
4074;SDS011;2052;53.522;9.806;2022-09-09T15:02:54;3.20;;;2.30;;
4074;SDS011;2052;53.522;9.806;2022-09-09T15:05:22;3.27;;;2.37;;
4074;SDS011;2052;53.522;9.806;2022-09-09T15:07:49;3.53;;;2.97;;
4074;SDS011;2052;53.522;9.806;2022-09-09T15:10:16;4.40;;;2.43;;
4074;SDS011;2052;53.522;9.806;2022-09-09T15:12:43;7.83;;;2.80;;
4074;SDS011;2052;53.522;9.806;2022-09-09T15:15:10;4.03;;;3.00;;
4074;SDS011;2052;53.522;9.806;2022-09-09T15:17:37;3.70;;;2.70;;
4074;SDS011;2052;53.522;9.806;2022-09-09T15:20:04;6.53;;;3.10;;
4074;SDS011;2052;53.522;9.806;2022-09-09T15:22:33;7.50;;;2.87;;
4074;SDS011;2052;53.522;9.806;2022-09-09T15:25:01;5.87;;;3.13;;
4074;SDS011;2052;53.522;9.806;2022-09-09T15:27:29;3.03;;;2.73;;
4074;SDS011;2052;53.522;9.806;2022-09-09T15:29:56;3.53;;;3.23;;
4074;SDS011;2052;53.522;9.806;2022-09-09T15:32:24;4.60;;;3.33;;